createdAt,value
2017-09-14T05:14:21.610Z,0
2017-09-14T05:15:02.193Z,0
2017-09-14T05:15:42.754Z,0
2017-09-14T05:16:23.301Z,0
2017-09-14T05:17:03.863Z,0
2017-09-14T05:17:44.421Z,0
2017-09-14T05:18:25.005Z,0
2017-09-14T05:19:05.561Z,0
2017-09-14T05:19:46.142Z,0
2017-09-14T05:20:26.702Z,0
2017-09-14T05:21:07.285Z,0
2017-09-14T05:21:48.529Z,0
2017-09-14T05:22:29.105Z,0
2017-09-14T05:23:09.678Z,0
2017-09-14T05:23:50.232Z,0
2017-09-14T05:24:30.825Z,0
2017-09-14T05:25:11.400Z,0
2017-09-14T05:25:52.471Z,5
2017-09-14T05:26:33.045Z,5
2017-09-14T05:27:13.615Z,5
2017-09-14T05:27:54.192Z,5
2017-09-14T05:28:34.799Z,5
2017-09-14T05:29:15.401Z,5
2017-09-14T05:29:56.451Z,5
2017-09-14T05:30:37.022Z,5
2017-09-14T05:31:17.611Z,5
2017-09-14T05:31:58.197Z,5
2017-09-14T05:32:38.787Z,5
2017-09-14T05:33:19.350Z,10
2017-09-14T05:33:59.922Z,10
2017-09-14T05:34:40.491Z,10
2017-09-14T05:35:21.054Z,10
2017-09-14T05:36:01.613Z,10
2017-09-14T05:36:42.175Z,10
2017-09-14T05:37:22.738Z,10
2017-09-14T05:38:03.330Z,10
2017-09-14T05:38:43.900Z,10
2017-09-14T05:39:24.460Z,10
2017-09-14T05:40:05.150Z,10
2017-09-14T05:40:45.714Z,10
2017-09-14T05:41:26.275Z,10
2017-09-14T05:42:07.143Z,10
2017-09-14T05:42:47.539Z,10
2017-09-14T05:43:28.096Z,10
2017-09-14T05:44:08.655Z,5
2017-09-14T05:44:49.230Z,5
2017-09-14T05:45:29.790Z,10
2017-09-14T05:46:10.389Z,10
2017-09-14T05:46:50.929Z,10
2017-09-14T05:47:31.482Z,10
2017-09-14T05:48:12.057Z,10
2017-09-14T05:48:52.634Z,5
2017-09-14T05:49:33.201Z,5
2017-09-14T05:50:13.786Z,5
2017-09-14T05:50:54.344Z,5
2017-09-14T05:51:34.902Z,10
2017-09-14T05:52:15.490Z,10
2017-09-14T05:52:56.051Z,10
2017-09-14T05:53:36.619Z,10
2017-09-14T05:54:17.192Z,10
2017-09-14T05:54:57.793Z,10
2017-09-14T05:55:38.368Z,10
2017-09-14T05:56:19.017Z,10
2017-09-14T05:57:00.028Z,15
2017-09-14T05:57:40.611Z,15
2017-09-14T05:58:21.190Z,15
2017-09-14T05:59:01.758Z,20
2017-09-14T05:59:42.319Z,20
2017-09-14T06:00:22.915Z,25
2017-09-14T06:01:03.474Z,25
2017-09-14T06:01:44.031Z,25
2017-09-14T06:02:24.611Z,25
2017-09-14T06:03:05.169Z,25
2017-09-14T06:03:45.754Z,30
2017-09-14T06:04:26.328Z,30
2017-09-14T06:05:06.894Z,30
2017-09-14T06:05:47.461Z,30
2017-09-14T06:06:28.020Z,30
2017-09-14T06:07:08.643Z,30
2017-09-14T06:07:49.222Z,30
2017-09-14T06:08:29.855Z,25
2017-09-14T06:09:10.445Z,25
2017-09-14T06:09:51.025Z,20
2017-09-14T06:10:31.610Z,20
2017-09-14T06:11:12.195Z,15
2017-09-14T06:11:52.796Z,15
2017-09-14T06:12:33.383Z,15
2017-09-14T06:13:13.950Z,15
2017-09-14T06:13:54.514Z,15
2017-09-14T06:14:35.067Z,15
2017-09-14T06:15:15.630Z,15
2017-09-14T06:15:56.214Z,20
2017-09-14T06:16:36.791Z,15
2017-09-14T06:17:17.356Z,15
2017-09-14T06:17:57.929Z,15
2017-09-14T06:18:38.506Z,15
2017-09-14T06:19:19.073Z,15
2017-09-14T06:19:59.645Z,20
2017-09-14T06:20:40.194Z,20
2017-09-14T06:21:20.822Z,20
2017-09-14T06:22:01.389Z,15
2017-09-14T06:22:41.946Z,15
2017-09-14T06:23:22.573Z,15
2017-09-14T06:24:03.125Z,15
2017-09-14T06:24:43.695Z,20
2017-09-14T06:25:24.277Z,25
2017-09-14T06:26:04.865Z,30
2017-09-14T06:26:45.440Z,35
2017-09-14T06:27:26.008Z,40
2017-09-14T06:28:06.613Z,40
2017-09-14T06:28:47.184Z,40
2017-09-14T06:29:27.777Z,40
2017-09-14T06:30:08.347Z,40
2017-09-14T06:30:48.906Z,45
2017-09-14T06:31:29.492Z,45
2017-09-14T06:32:10.088Z,45
2017-09-14T06:32:50.654Z,45
2017-09-14T06:33:31.205Z,40
2017-09-14T06:34:11.768Z,35
2017-09-14T06:34:52.390Z,30
2017-09-14T06:35:32.969Z,30
2017-09-14T06:36:13.543Z,30
2017-09-14T06:36:54.138Z,25
2017-09-14T06:37:34.722Z,25
2017-09-14T06:38:15.310Z,25
2017-09-14T06:38:55.919Z,25
2017-09-14T06:39:36.519Z,25
2017-09-14T06:40:17.147Z,25
2017-09-14T06:40:57.720Z,25
2017-09-14T06:41:38.292Z,20
2017-09-14T06:42:18.890Z,20
2017-09-14T06:42:59.472Z,20
2017-09-14T06:43:40.049Z,20
2017-09-14T06:44:20.617Z,20
2017-09-14T06:45:01.198Z,20
2017-09-14T06:45:41.770Z,20
2017-09-14T06:46:22.338Z,25
2017-09-14T06:47:02.904Z,25
2017-09-14T06:47:43.461Z,25
2017-09-14T06:48:24.039Z,30
2017-09-14T06:49:04.613Z,30
2017-09-14T06:49:45.170Z,30
2017-09-14T06:50:25.751Z,30
2017-09-14T06:51:06.354Z,30
2017-09-14T06:51:46.947Z,35
2017-09-14T06:52:27.530Z,40
2017-09-14T06:53:08.126Z,45
2017-09-14T06:53:48.693Z,50
2017-09-14T06:54:29.243Z,50
2017-09-14T06:55:09.826Z,55
2017-09-14T06:55:50.390Z,65
2017-09-14T06:56:31.014Z,75
2017-09-14T06:57:11.594Z,85
2017-09-14T06:57:52.156Z,90
2017-09-14T06:58:32.726Z,95
2017-09-14T06:59:13.288Z,90
2017-09-14T06:59:53.855Z,90
2017-09-14T07:00:34.485Z,85
2017-09-14T07:01:15.059Z,80
2017-09-14T07:01:55.626Z,75
2017-09-14T07:02:36.198Z,75
2017-09-14T07:03:16.785Z,75
2017-09-14T07:03:57.351Z,75
2017-09-14T07:04:37.921Z,70
2017-09-14T07:05:18.512Z,65
2017-09-14T07:05:59.100Z,60
2017-09-14T07:06:39.667Z,55
2017-09-14T07:07:20.242Z,55
2017-09-14T07:08:00.832Z,50
2017-09-14T07:08:41.400Z,55
2017-09-14T07:09:21.962Z,60
2017-09-14T07:10:02.569Z,65
2017-09-14T07:10:43.113Z,65
2017-09-14T07:11:23.687Z,65
2017-09-14T07:12:04.249Z,70
2017-09-14T07:12:44.907Z,65
2017-09-14T07:13:25.463Z,70
2017-09-14T07:14:06.029Z,70
2017-09-14T07:14:46.607Z,75
2017-09-14T07:15:27.172Z,75
2017-09-14T07:16:07.745Z,70
2017-09-14T07:16:48.306Z,60
2017-09-14T07:17:28.867Z,50
2017-09-14T07:18:09.424Z,50
2017-09-14T07:18:50.003Z,45
2017-09-14T07:19:30.560Z,45
2017-09-14T07:20:11.160Z,45
2017-09-14T07:20:51.713Z,40
2017-09-14T07:21:32.276Z,40
2017-09-14T07:22:12.839Z,40
2017-09-14T07:22:53.462Z,35
2017-09-14T07:23:34.075Z,35
2017-09-14T07:24:14.653Z,30
2017-09-14T07:24:55.223Z,30
2017-09-14T07:25:35.808Z,35
2017-09-14T07:26:16.381Z,35
2017-09-14T07:26:56.941Z,35
2017-09-14T07:27:37.518Z,35
2017-09-14T07:28:18.079Z,40
2017-09-14T07:28:58.670Z,40
2017-09-14T07:29:39.232Z,45
2017-09-14T07:30:19.794Z,45
2017-09-14T07:31:00.377Z,50
2017-09-14T07:31:41.012Z,55
2017-09-14T07:32:21.579Z,65
2017-09-14T07:33:02.201Z,75
2017-09-14T07:33:42.775Z,85
2017-09-14T07:34:23.340Z,80
2017-09-14T07:35:03.917Z,80
2017-09-14T07:35:44.472Z,75
2017-09-14T07:36:25.040Z,70
2017-09-14T07:37:05.611Z,65
2017-09-14T07:37:46.172Z,60
2017-09-14T07:38:26.736Z,60
2017-09-14T07:39:07.303Z,65
2017-09-14T07:39:47.917Z,70
2017-09-14T07:40:28.485Z,70
2017-09-14T07:41:09.055Z,65
2017-09-14T07:41:49.615Z,65
2017-09-14T07:42:30.206Z,65
2017-09-14T07:43:10.774Z,65
2017-09-14T07:43:51.343Z,75
2017-09-14T07:44:31.897Z,65
2017-09-14T07:45:12.452Z,70
2017-09-14T07:45:53.012Z,70
2017-09-14T07:46:33.566Z,85
2017-09-14T07:47:14.169Z,95
2017-09-14T07:47:54.756Z,120
2017-09-14T07:48:35.331Z,130
2017-09-14T07:49:15.893Z,120
2017-09-14T07:49:56.456Z,100
2017-09-14T07:50:37.019Z,90
2017-09-14T07:51:17.590Z,85
2017-09-14T07:51:58.225Z,85
2017-09-14T07:52:38.840Z,90
2017-09-14T07:53:19.424Z,85
2017-09-14T07:53:59.994Z,90
2017-09-14T07:54:40.558Z,100
2017-09-14T07:55:21.116Z,90
2017-09-14T07:56:01.676Z,85
2017-09-14T07:56:42.400Z,80
2017-09-14T07:57:22.961Z,75
2017-09-14T07:58:03.548Z,65
2017-09-14T07:58:44.112Z,60
2017-09-14T07:59:24.712Z,55
2017-09-14T08:00:05.282Z,50
2017-09-14T08:00:45.863Z,55
2017-09-14T08:01:26.437Z,55
2017-09-14T08:02:07.020Z,60
2017-09-14T08:02:47.590Z,60
2017-09-14T08:03:28.165Z,65
2017-09-14T08:04:08.724Z,70
2017-09-14T08:04:49.317Z,75
2017-09-14T08:05:29.901Z,85
2017-09-14T08:06:10.484Z,95
2017-09-14T08:06:51.043Z,95
2017-09-14T08:07:31.608Z,95
2017-09-14T08:08:12.209Z,95
2017-09-14T08:08:52.773Z,95
2017-09-14T08:09:33.337Z,90
2017-09-14T08:10:13.897Z,85
2017-09-14T08:10:54.462Z,80
2017-09-14T08:11:35.048Z,75
2017-09-14T08:12:15.627Z,75
2017-09-14T08:12:56.203Z,75
2017-09-14T08:13:36.765Z,75
2017-09-14T08:14:17.334Z,75
2017-09-14T08:14:57.893Z,70
2017-09-14T08:15:38.462Z,75
2017-09-14T08:16:19.028Z,80
2017-09-14T08:16:59.610Z,80
2017-09-14T08:17:40.181Z,85
2017-09-14T08:18:20.750Z,85
2017-09-14T08:19:01.299Z,85
2017-09-14T08:19:41.900Z,80
2017-09-14T08:20:22.479Z,80
2017-09-14T08:21:03.049Z,85
2017-09-14T08:21:43.626Z,85
2017-09-14T08:22:24.257Z,85
2017-09-14T08:23:04.838Z,85
2017-09-14T08:23:45.421Z,90
2017-09-14T08:24:26.031Z,90
2017-09-14T08:25:06.607Z,85
2017-09-14T08:25:47.176Z,80
2017-09-14T08:26:27.746Z,75
2017-09-14T08:27:08.329Z,75
2017-09-14T08:27:48.886Z,75
2017-09-14T08:28:29.463Z,75
2017-09-14T08:29:10.034Z,80
2017-09-14T08:29:50.604Z,85
2017-09-14T08:30:31.155Z,90
2017-09-14T08:31:11.738Z,95
2017-09-14T08:31:52.330Z,95
2017-09-14T08:32:32.883Z,100
2017-09-14T08:33:13.481Z,100
2017-09-14T08:33:54.046Z,100
2017-09-14T08:34:34.613Z,95
2017-09-14T08:35:15.171Z,90
2017-09-14T08:35:55.728Z,90
2017-09-14T08:36:36.294Z,90
2017-09-14T08:37:16.867Z,90
2017-09-14T08:37:57.439Z,95
2017-09-14T08:38:37.999Z,95
2017-09-14T08:39:18.574Z,95
2017-09-14T08:39:59.131Z,95
2017-09-14T08:40:39.689Z,105
2017-09-14T08:41:20.274Z,115
2017-09-14T08:42:00.843Z,130
2017-09-14T08:42:41.404Z,135
2017-09-14T08:43:21.989Z,130
2017-09-14T08:44:02.549Z,120
2017-09-14T08:44:43.121Z,115
2017-09-14T08:45:23.698Z,115
2017-09-14T08:46:04.326Z,120
2017-09-14T08:46:44.922Z,125
2017-09-14T08:47:25.510Z,130
2017-09-14T08:48:06.082Z,135
2017-09-14T08:48:46.658Z,135
2017-09-14T08:49:27.239Z,130
2017-09-14T08:50:07.822Z,130
2017-09-14T08:50:48.386Z,140
2017-09-14T08:51:28.973Z,135
2017-09-14T08:52:09.556Z,130
2017-09-14T08:52:50.127Z,120
2017-09-14T08:53:30.684Z,115
2017-09-14T08:54:11.252Z,105
2017-09-14T08:54:51.821Z,105
2017-09-14T08:55:32.389Z,105
2017-09-14T08:56:12.988Z,100
2017-09-14T08:56:53.566Z,100
2017-09-14T08:57:34.123Z,95
2017-09-14T08:58:14.723Z,85
2017-09-14T08:58:55.286Z,80
2017-09-14T08:59:35.875Z,75
2017-09-14T09:00:16.433Z,70
2017-09-14T09:00:56.989Z,70
2017-09-14T09:01:37.551Z,65
2017-09-14T09:02:18.115Z,65
2017-09-14T09:02:58.673Z,70
2017-09-14T09:03:39.281Z,75
2017-09-14T09:04:19.849Z,80
2017-09-14T09:05:00.404Z,80
2017-09-14T09:05:40.989Z,80
2017-09-14T09:06:21.564Z,85
2017-09-14T09:07:02.132Z,85
2017-09-14T09:07:42.704Z,90
2017-09-14T09:08:23.273Z,95
2017-09-14T09:09:03.829Z,100
2017-09-14T09:09:44.420Z,100
2017-09-14T09:10:24.986Z,95
2017-09-14T09:11:05.550Z,95
2017-09-14T09:11:46.185Z,85
2017-09-14T09:12:26.753Z,80
2017-09-14T09:13:07.342Z,75
2017-09-14T09:13:47.906Z,75
2017-09-14T09:14:28.480Z,80
2017-09-14T09:15:09.043Z,80
2017-09-14T09:15:49.602Z,85
2017-09-14T09:16:30.164Z,90
2017-09-14T09:17:10.718Z,90
2017-09-14T09:17:51.297Z,90
2017-09-14T09:18:31.855Z,85
2017-09-14T09:19:12.439Z,80
2017-09-14T09:19:53.012Z,75
2017-09-14T09:20:33.575Z,75
2017-09-14T09:21:14.174Z,70
2017-09-14T09:21:54.742Z,70
2017-09-14T09:22:35.308Z,70
2017-09-14T09:23:15.932Z,65
2017-09-14T09:23:56.493Z,65
2017-09-14T09:24:37.076Z,60
2017-09-14T09:25:17.672Z,55
2017-09-14T09:25:58.290Z,55
2017-09-14T09:26:38.864Z,55
2017-09-14T09:27:19.423Z,55
2017-09-14T09:27:59.988Z,55
2017-09-14T09:28:40.570Z,50
2017-09-14T09:29:21.147Z,50
2017-09-14T09:30:01.738Z,50
2017-09-14T09:30:42.332Z,50
2017-09-14T09:31:22.899Z,50
2017-09-14T09:32:03.473Z,55
2017-09-14T09:32:45.173Z,55
2017-09-14T09:33:25.737Z,55
2017-09-14T09:34:06.328Z,55
2017-09-14T09:34:46.917Z,55
2017-09-14T09:35:27.483Z,50
2017-09-14T09:36:08.111Z,45
2017-09-14T09:36:48.681Z,40
2017-09-14T09:37:29.249Z,50
2017-09-14T09:38:09.861Z,55
2017-09-14T09:38:50.434Z,50
2017-09-14T09:39:31.002Z,40
2017-09-14T09:40:11.557Z,40
2017-09-14T09:40:52.119Z,50
2017-09-14T09:41:32.677Z,55
2017-09-14T09:42:13.256Z,60
2017-09-14T09:42:53.830Z,60
2017-09-14T09:43:34.430Z,55
2017-09-14T09:44:15.219Z,50
2017-09-14T09:44:55.789Z,50
2017-09-14T09:45:37.388Z,50
2017-09-14T09:46:17.942Z,50
2017-09-14T09:46:59.477Z,55
2017-09-14T09:47:39.902Z,55
2017-09-14T09:48:20.668Z,55
2017-09-14T09:49:03.319Z,55
2017-09-14T09:49:43.872Z,50
2017-09-14T09:50:24.441Z,50
2017-09-14T09:51:05.108Z,50
2017-09-14T09:51:45.693Z,45
2017-09-14T09:52:26.269Z,45
2017-09-14T09:53:06.846Z,45
2017-09-14T09:53:47.421Z,40
2017-09-14T09:54:28.037Z,45
2017-09-14T09:55:08.628Z,45
2017-09-14T09:55:49.200Z,40
2017-09-14T09:56:29.775Z,40
2017-09-14T09:57:10.554Z,45
2017-09-14T09:57:51.762Z,45
2017-09-14T09:58:32.343Z,45
2017-09-14T09:59:12.912Z,40
2017-09-14T09:59:53.513Z,40
2017-09-14T10:00:34.110Z,35
2017-09-14T10:01:14.680Z,40
2017-09-14T10:01:55.252Z,40
2017-09-14T10:02:35.831Z,45
2017-09-14T10:03:16.395Z,50
2017-09-14T10:03:56.974Z,55
2017-09-14T10:04:37.545Z,55
2017-09-14T10:05:18.101Z,50
2017-09-14T10:05:58.708Z,45
2017-09-14T10:06:39.279Z,45
2017-09-14T10:07:19.867Z,40
2017-09-14T10:08:00.484Z,40
2017-09-14T10:08:41.062Z,45
2017-09-14T10:09:21.630Z,50
2017-09-14T10:10:02.198Z,50
2017-09-14T10:10:42.765Z,50
2017-09-14T10:11:23.343Z,45
2017-09-14T10:12:03.952Z,45
2017-09-14T10:12:44.514Z,45
2017-09-14T10:13:25.079Z,40
2017-09-14T10:14:05.669Z,45
2017-09-14T10:14:46.258Z,50
2017-09-14T10:15:26.824Z,55
2017-09-14T10:16:07.389Z,60
2017-09-14T10:16:47.965Z,65
2017-09-14T10:17:28.657Z,65
2017-09-14T10:18:09.195Z,65
2017-09-14T10:18:49.761Z,65
2017-09-14T10:19:30.323Z,60
2017-09-14T10:20:10.886Z,60
2017-09-14T10:20:51.476Z,55
2017-09-14T10:21:32.052Z,50
2017-09-14T10:22:12.613Z,50
2017-09-14T10:22:53.173Z,55
2017-09-14T10:23:33.741Z,55
2017-09-14T10:24:14.328Z,60
2017-09-14T10:24:54.918Z,60
2017-09-14T10:25:35.475Z,60
2017-09-14T10:26:16.027Z,50
2017-09-14T10:26:56.608Z,50
2017-09-14T10:27:37.171Z,50
2017-09-14T10:28:17.737Z,50
2017-09-14T10:28:58.314Z,50
2017-09-14T10:29:38.898Z,55
2017-09-14T10:30:19.467Z,55
2017-09-14T10:31:00.031Z,65
2017-09-14T10:31:40.606Z,70
2017-09-14T10:32:21.191Z,75
2017-09-14T10:33:01.795Z,80
2017-09-14T10:33:42.377Z,85
2017-09-14T10:34:22.945Z,90
2017-09-14T10:35:03.503Z,95
2017-09-14T10:35:44.154Z,100
2017-09-14T10:36:24.716Z,100
2017-09-14T10:37:05.268Z,85
2017-09-14T10:37:45.836Z,70
2017-09-14T10:38:26.397Z,70
2017-09-14T10:39:06.984Z,75
2017-09-14T10:39:47.540Z,75
2017-09-14T10:40:28.100Z,80
2017-09-14T10:41:08.735Z,85
2017-09-14T10:41:49.393Z,90
2017-09-14T10:42:29.967Z,95
2017-09-14T10:43:10.577Z,95
2017-09-14T10:43:51.152Z,100
2017-09-14T10:44:31.720Z,105
2017-09-14T10:45:12.317Z,105
2017-09-14T10:45:52.866Z,105
2017-09-14T10:46:33.430Z,110
2017-09-14T10:47:14.073Z,115
2017-09-14T10:47:54.614Z,120
2017-09-14T10:48:35.188Z,125
2017-09-14T10:49:15.776Z,130
2017-09-14T10:49:56.327Z,125
2017-09-14T10:50:36.902Z,120
2017-09-14T10:51:17.463Z,110
2017-09-14T10:51:58.033Z,105
2017-09-14T10:52:38.597Z,100
2017-09-14T10:53:19.161Z,95
2017-09-14T10:53:59.730Z,85
2017-09-14T10:54:40.319Z,80
2017-09-14T10:55:20.902Z,80
2017-09-14T10:56:01.468Z,75
2017-09-14T10:56:42.030Z,60
2017-09-14T10:57:22.590Z,45
2017-09-14T10:58:03.152Z,35
2017-09-14T10:58:43.727Z,25
2017-09-14T10:59:24.315Z,25
2017-09-14T11:00:04.860Z,30
2017-09-14T11:00:45.445Z,40
2017-09-14T11:01:26.019Z,50
2017-09-14T11:02:06.590Z,50
2017-09-14T11:02:47.155Z,45
2017-09-14T11:03:27.721Z,55
2017-09-14T11:04:08.310Z,60
2017-09-14T11:04:48.876Z,65
2017-09-14T11:05:29.455Z,60
2017-09-14T11:06:10.012Z,55
2017-09-14T11:06:50.566Z,50
2017-09-14T11:07:31.128Z,45
2017-09-14T11:08:11.692Z,40
2017-09-14T11:08:52.271Z,40
2017-09-14T11:09:32.829Z,45
2017-09-14T11:10:13.404Z,45
2017-09-14T11:10:53.979Z,60
2017-09-14T11:11:34.543Z,80
2017-09-14T11:12:15.099Z,95
2017-09-14T11:12:55.670Z,95
2017-09-14T11:13:36.246Z,95
2017-09-14T11:14:16.808Z,105
2017-09-14T11:14:57.366Z,115
2017-09-14T11:15:37.924Z,120
2017-09-14T11:16:18.490Z,110
2017-09-14T11:16:59.083Z,105
2017-09-14T11:17:39.627Z,95
2017-09-14T11:18:20.249Z,85
2017-09-14T11:19:00.808Z,80
2017-09-14T11:19:41.377Z,90
2017-09-14T11:20:21.941Z,100
2017-09-14T11:21:02.536Z,105
2017-09-14T11:21:43.131Z,100
2017-09-14T11:22:23.704Z,85
2017-09-14T11:23:04.264Z,75
2017-09-14T11:23:44.818Z,70
2017-09-14T11:24:25.386Z,65
2017-09-14T11:25:05.956Z,60
2017-09-14T11:25:46.525Z,50
2017-09-14T11:26:27.092Z,45
2017-09-14T11:27:07.660Z,40
2017-09-14T11:27:48.236Z,40
2017-09-14T11:28:28.796Z,40
2017-09-14T11:29:09.382Z,40
2017-09-14T11:29:49.934Z,35
2017-09-14T11:30:30.499Z,30
2017-09-14T11:31:11.059Z,25
2017-09-14T11:31:51.663Z,25
2017-09-14T11:32:32.226Z,25
2017-09-14T11:33:12.790Z,25
2017-09-14T11:33:53.358Z,25
2017-09-14T11:34:33.913Z,25
2017-09-14T11:35:14.486Z,25
2017-09-14T11:35:55.081Z,25
2017-09-14T11:36:35.649Z,25
2017-09-14T11:37:16.227Z,25
2017-09-14T11:37:56.834Z,30
2017-09-14T11:38:37.442Z,30
2017-09-14T11:39:18.001Z,30
2017-09-14T11:39:58.574Z,30
2017-09-14T11:40:39.169Z,35
2017-09-14T11:41:19.874Z,35
2017-09-14T11:42:00.442Z,35
2017-09-14T11:42:42.633Z,35
2017-09-14T11:43:23.197Z,35
2017-09-14T11:44:03.808Z,35
2017-09-14T11:44:44.342Z,40
2017-09-14T11:45:25.201Z,40
2017-09-14T11:46:05.794Z,40
2017-09-14T11:46:46.397Z,45
2017-09-14T11:47:26.970Z,45
2017-09-14T11:48:07.545Z,55
2017-09-14T11:48:48.104Z,65
2017-09-14T11:49:28.692Z,75
2017-09-14T11:50:09.689Z,80
2017-09-14T11:50:50.270Z,80
2017-09-14T11:51:30.842Z,80
2017-09-14T11:52:11.418Z,75
2017-09-14T11:52:51.964Z,85
2017-09-14T11:53:32.642Z,90
2017-09-14T11:54:13.201Z,105
2017-09-14T11:54:53.808Z,120
2017-09-14T11:55:34.416Z,130
2017-09-14T11:56:15.000Z,145
2017-09-14T11:56:55.607Z,150
2017-09-14T11:57:36.139Z,145
2017-09-14T11:58:16.696Z,145
2017-09-14T11:58:57.494Z,140
2017-09-14T11:59:38.063Z,135
2017-09-14T12:00:18.634Z,125
2017-09-14T12:00:59.216Z,125
2017-09-14T12:01:39.814Z,125
2017-09-14T12:02:20.374Z,120
2017-09-14T12:03:00.944Z,115
2017-09-14T12:03:41.690Z,115
2017-09-14T12:04:22.388Z,115
2017-09-14T12:05:03.111Z,115
2017-09-14T12:05:43.788Z,120
2017-09-14T12:06:24.390Z,120
2017-09-14T12:07:04.937Z,120
2017-09-14T12:07:45.514Z,120
2017-09-14T12:08:26.082Z,120
2017-09-14T12:09:06.650Z,125
2017-09-14T12:09:47.214Z,125
2017-09-14T12:10:27.766Z,120
2017-09-14T12:11:08.364Z,125
2017-09-14T12:11:48.938Z,130
2017-09-14T12:12:29.504Z,130
2017-09-14T12:13:10.124Z,125
2017-09-14T12:13:50.677Z,120
2017-09-14T12:14:31.242Z,115
2017-09-14T12:15:11.821Z,115
2017-09-14T12:15:52.389Z,115
2017-09-14T12:16:32.965Z,110
2017-09-14T12:17:13.540Z,110
2017-09-14T12:17:54.114Z,105
2017-09-14T12:18:34.677Z,105
2017-09-14T12:19:15.245Z,105
2017-09-14T12:19:55.804Z,105
2017-09-14T12:20:36.358Z,105
2017-09-14T12:21:16.923Z,105
2017-09-14T12:21:57.495Z,110
2017-09-14T12:22:38.069Z,105
2017-09-14T12:23:18.650Z,110
2017-09-14T12:23:59.212Z,110
2017-09-14T12:24:39.774Z,105
2017-09-14T12:25:20.338Z,105
2017-09-14T12:26:00.894Z,95
2017-09-14T12:26:41.466Z,95
2017-09-14T12:27:22.025Z,100
2017-09-14T12:28:02.585Z,115
2017-09-14T12:28:43.152Z,110
2017-09-14T12:29:23.716Z,110
2017-09-14T12:30:04.289Z,115
2017-09-14T12:30:44.853Z,115
2017-09-14T12:31:25.422Z,115
2017-09-14T12:32:05.984Z,115
2017-09-14T12:32:46.552Z,110
2017-09-14T12:33:27.127Z,110
2017-09-14T12:34:07.718Z,100
2017-09-14T12:34:48.282Z,100
2017-09-14T12:35:28.838Z,95
2017-09-14T12:36:09.469Z,90
2017-09-14T12:36:50.060Z,85
2017-09-14T12:37:30.624Z,80
2017-09-14T12:38:11.201Z,70
2017-09-14T12:38:51.794Z,75
2017-09-14T12:39:32.377Z,95
2017-09-14T12:40:12.965Z,125
2017-09-14T12:40:53.522Z,130
2017-09-14T12:41:34.122Z,130
2017-09-14T12:42:14.686Z,125
2017-09-14T12:42:55.252Z,125
2017-09-14T12:43:35.822Z,135
2017-09-14T12:44:16.394Z,125
2017-09-14T12:44:56.981Z,125
2017-09-14T12:45:37.545Z,125
2017-09-14T12:46:18.114Z,120
2017-09-14T12:46:58.701Z,125
2017-09-14T12:47:39.267Z,120
2017-09-14T12:48:19.837Z,105
2017-09-14T12:49:00.398Z,100
2017-09-14T12:49:40.995Z,110
2017-09-14T12:50:21.557Z,115
2017-09-14T12:51:02.162Z,115
2017-09-14T12:51:42.783Z,105
2017-09-14T12:52:23.357Z,105
2017-09-14T12:53:03.917Z,95
2017-09-14T12:53:44.496Z,95
2017-09-14T12:54:25.071Z,95
2017-09-14T12:55:05.651Z,90
2017-09-14T12:55:46.232Z,85
2017-09-14T12:56:26.805Z,85
2017-09-14T12:57:07.369Z,80
2017-09-14T12:57:48.034Z,75
2017-09-14T12:58:28.603Z,75
2017-09-14T12:59:09.171Z,75
2017-09-14T12:59:51.000Z,75
2017-09-14T13:00:32.922Z,80
2017-09-14T13:01:13.962Z,80
2017-09-14T13:01:54.736Z,85
2017-09-14T13:02:35.308Z,85
2017-09-14T13:03:15.863Z,80
2017-09-14T13:03:56.432Z,75
2017-09-14T13:04:37.008Z,75
2017-09-14T13:05:17.564Z,100
2017-09-14T13:05:58.116Z,75
2017-09-14T13:06:38.675Z,80
2017-09-14T13:07:19.239Z,85
2017-09-14T13:07:59.801Z,85
2017-09-14T13:08:40.387Z,90
2017-09-14T13:09:21.978Z,75
2017-09-14T13:10:02.873Z,70
2017-09-14T13:10:43.506Z,70
2017-09-14T13:11:24.172Z,70
2017-09-14T13:12:04.723Z,75
2017-09-14T13:12:45.278Z,65
2017-09-14T13:13:25.871Z,65
2017-09-14T13:14:06.432Z,60
2017-09-14T13:14:46.992Z,60
2017-09-14T13:15:27.622Z,60
2017-09-14T13:16:08.175Z,65
2017-09-14T13:16:48.737Z,70
2017-09-14T13:17:29.295Z,80
2017-09-14T13:18:09.882Z,90
2017-09-14T13:18:50.429Z,85
2017-09-14T13:19:31.052Z,90
2017-09-14T13:20:11.646Z,100
2017-09-14T13:20:52.212Z,90
2017-09-14T13:21:32.792Z,85
2017-09-14T13:22:13.352Z,85
2017-09-14T13:22:53.927Z,90
2017-09-14T13:23:34.515Z,90
2017-09-14T13:24:15.091Z,95
2017-09-14T13:24:55.671Z,95
2017-09-14T13:25:36.225Z,90
2017-09-14T13:26:16.790Z,90
2017-09-14T13:26:57.371Z,105
2017-09-14T13:27:37.938Z,100
2017-09-14T13:28:18.504Z,120
2017-09-14T13:28:59.072Z,105
2017-09-14T13:29:39.650Z,105
2017-09-14T13:30:20.217Z,95
2017-09-14T13:31:00.795Z,95
2017-09-14T13:31:41.365Z,90
2017-09-14T13:32:21.927Z,90
2017-09-14T13:33:02.497Z,85
2017-09-14T13:33:43.081Z,80
2017-09-14T13:34:23.647Z,100
2017-09-14T13:35:04.240Z,100
2017-09-14T13:35:44.802Z,85
2017-09-14T13:36:25.394Z,80
2017-09-14T13:37:05.948Z,80
2017-09-14T13:37:46.518Z,80
2017-09-14T13:38:27.135Z,75
2017-09-14T13:39:07.712Z,80
2017-09-14T13:39:48.270Z,75
2017-09-14T13:40:28.877Z,75
2017-09-14T13:41:09.441Z,75
2017-09-14T13:41:50.006Z,75
2017-09-14T13:42:30.560Z,80
2017-09-14T13:43:11.147Z,80
2017-09-14T13:43:51.722Z,80
2017-09-14T13:44:32.323Z,100
2017-09-14T13:45:12.922Z,85
2017-09-14T13:45:53.493Z,95
2017-09-14T13:46:34.073Z,85
2017-09-14T13:47:14.667Z,85
2017-09-14T13:47:55.237Z,90
2017-09-14T13:48:35.810Z,95
2017-09-14T13:49:16.403Z,85
2017-09-14T13:49:56.953Z,90
2017-09-14T13:50:37.525Z,85
2017-09-14T13:51:18.105Z,85
2017-09-14T13:51:58.699Z,90
2017-09-14T13:52:39.295Z,85
2017-09-14T13:53:19.888Z,85
2017-09-14T13:54:00.430Z,80
2017-09-14T13:54:40.997Z,85
2017-09-14T13:55:21.571Z,85
2017-09-14T13:56:02.156Z,95
2017-09-14T13:56:42.736Z,85
2017-09-14T13:57:23.323Z,85
2017-09-14T13:58:03.888Z,85
2017-09-14T13:58:44.494Z,85
2017-09-14T13:59:25.100Z,85
2017-09-14T14:00:05.666Z,80
2017-09-14T14:00:46.246Z,85
2017-09-14T14:01:26.859Z,80
2017-09-14T14:02:07.422Z,80
2017-09-14T14:02:47.995Z,90
2017-09-14T14:03:28.593Z,105
2017-09-14T14:04:09.179Z,105
2017-09-14T14:04:49.738Z,100
2017-09-14T14:05:30.321Z,100
2017-09-14T14:06:10.884Z,80
2017-09-14T14:06:51.455Z,80
2017-09-14T14:07:32.034Z,80
2017-09-14T14:08:12.602Z,80
2017-09-14T14:08:53.217Z,70
2017-09-14T14:09:33.818Z,65
2017-09-14T14:10:14.424Z,65
2017-09-14T14:10:54.990Z,65
2017-09-14T14:11:35.569Z,60
2017-09-14T14:12:16.161Z,70
2017-09-14T14:12:56.746Z,80
2017-09-14T14:13:37.300Z,70
2017-09-14T14:14:17.879Z,70
2017-09-14T14:14:58.471Z,65
2017-09-14T14:15:39.061Z,65
2017-09-14T14:16:19.630Z,65
2017-09-14T14:17:00.193Z,65
2017-09-14T14:17:40.754Z,70
2017-09-14T14:18:21.385Z,75
2017-09-14T14:19:01.954Z,110
2017-09-14T14:19:42.551Z,75
2017-09-14T14:20:23.117Z,75
2017-09-14T14:21:03.710Z,75
2017-09-14T14:21:44.279Z,75
2017-09-14T14:22:24.830Z,70
2017-09-14T14:23:05.417Z,65
2017-09-14T14:23:45.993Z,60
2017-09-14T14:24:26.564Z,55
2017-09-14T14:25:07.128Z,55
2017-09-14T14:25:47.701Z,60
2017-09-14T14:26:28.330Z,60
2017-09-14T14:27:08.915Z,65
2017-09-14T14:27:49.486Z,70
2017-09-14T14:28:30.064Z,70
2017-09-14T14:29:10.626Z,75
2017-09-14T14:29:51.209Z,75
2017-09-14T14:30:31.811Z,75
2017-09-14T14:31:12.368Z,80
2017-09-14T14:31:52.942Z,100
2017-09-14T14:32:33.505Z,95
2017-09-14T14:33:14.067Z,80
2017-09-14T14:33:54.630Z,90
2017-09-14T14:34:35.232Z,90
2017-09-14T14:35:16.129Z,90
2017-09-14T14:35:56.720Z,90
2017-09-14T14:36:37.320Z,85
2017-09-14T14:37:17.897Z,85
2017-09-14T14:37:58.810Z,85
2017-09-14T14:38:39.409Z,80
2017-09-14T14:39:19.982Z,70
2017-09-14T14:40:00.587Z,70
2017-09-14T14:40:41.725Z,65
2017-09-14T14:41:22.319Z,60
2017-09-14T14:42:02.925Z,60
2017-09-14T14:42:43.496Z,60
2017-09-14T14:43:24.111Z,60
2017-09-14T14:44:04.696Z,55
2017-09-14T14:44:45.264Z,55
2017-09-14T14:45:25.858Z,55
2017-09-14T14:46:06.426Z,50
2017-09-14T14:46:47.024Z,50
2017-09-14T14:47:27.586Z,45
2017-09-14T14:48:08.167Z,45
2017-09-14T14:48:49.822Z,45
2017-09-14T14:49:30.388Z,45
2017-09-14T14:50:10.961Z,50